sensor_id;sensor_type;location;lat;lon;timestamp;temperature;humidity
5392;DHT22;2719;53.624;9.786;2024-01-30T00:00:25;7.40;99.90
5392;DHT22;2719;53.624;9.786;2024-01-30T00:02:52;7.40;99.90
5392;DHT22;2719;53.624;9.786;2024-01-30T00:05:18;7.30;99.90
5392;DHT22;2719;53.624;9.786;2024-01-30T00:07:45;7.40;99.90
5392;DHT22;2719;53.624;9.786;2024-01-30T00:10:13;7.40;99.90
5392;DHT22;2719;53.624;9.786;2024-01-30T00:12:40;7.40;99.90
5392;DHT22;2719;53.624;9.786;2024-01-30T00:15:07;7.40;99.90
5392;DHT22;2719;53.624;9.786;2024-01-30T00:17:35;7.40;99.90
5392;DHT22;2719;53.624;9.786;2024-01-30T00:20:04;7.40;99.90
5392;DHT22;2719;53.624;9.786;2024-01-30T00:22:31;7.50;99.90
5392;DHT22;2719;53.624;9.786;2024-01-30T00:24:58;7.60;99.90
5392;DHT22;2719;53.624;9.786;2024-01-30T00:27:26;7.60;99.90
5392;DHT22;2719;53.624;9.786;2024-01-30T00:29:53;7.70;99.90
5392;DHT22;2719;53.624;9.786;2024-01-30T00:32:19;7.70;99.90
5392;DHT22;2719;53.624;9.786;2024-01-30T00:34:46;7.70;99.90
5392;DHT22;2719;53.624;9.786;2024-01-30T00:37:12;7.70;99.90
5392;DHT22;2719;53.624;9.786;2024-01-30T00:39:39;7.70;99.90
5392;DHT22;2719;53.624;9.786;2024-01-30T00:42:06;7.70;99.90
5392;DHT22;2719;53.624;9.786;2024-01-30T00:44:36;7.70;99.90
5392;DHT22;2719;53.624;9.786;2024-01-30T00:47:04;7.70;99.90
5392;DHT22;2719;53.624;9.786;2024-01-30T00:49:30;7.70;99.90
5392;DHT22;2719;53.624;9.786;2024-01-30T00:51:57;7.70;99.90
5392;DHT22;2719;53.624;9.786;2024-01-30T00:54:23;7.60;99.90
5392;DHT22;2719;53.624;9.786;2024-01-30T00:56:50;7.60;99.90
5392;DHT22;2719;53.624;9.786;2024-01-30T00:59:17;7.70;99.90
5392;DHT22;2719;53.624;9.786;2024-01-30T01:01:45;7.70;99.90
5392;DHT22;2719;53.624;9.786;2024-01-30T01:04:11;7.70;99.90
5392;DHT22;2719;53.624;9.786;2024-01-30T01:06:38;7.70;99.90
5392;DHT22;2719;53.624;9.786;2024-01-30T01:09:05;7.70;99.90
5392;DHT22;2719;53.624;9.786;2024-01-30T01:11:32;7.70;99.90
5392;DHT22;2719;53.624;9.786;2024-01-30T01:13:59;7.70;99.90
5392;DHT22;2719;53.624;9.786;2024-01-30T01:16:25;7.80;99.90
5392;DHT22;2719;53.624;9.786;2024-01-30T01:18:53;7.70;99.90
5392;DHT22;2719;53.624;9.786;2024-01-30T01:21:20;7.70;99.90
5392;DHT22;2719;53.624;9.786;2024-01-30T01:23:46;7.70;99.90
5392;DHT22;2719;53.624;9.786;2024-01-30T01:26:13;7.60;99.90
5392;DHT22;2719;53.624;9.786;2024-01-30T01:28:40;7.60;99.90
5392;DHT22;2719;53.624;9.786;2024-01-30T01:31:07;7.50;99.90
5392;DHT22;2719;53.624;9.786;2024-01-30T01:33:34;7.60;99.90
5392;DHT22;2719;53.624;9.786;2024-01-30T01:36:04;7.60;99.90
5392;DHT22;2719;53.624;9.786;2024-01-30T01:38:32;7.50;99.90
5392;DHT22;2719;53.624;9.786;2024-01-30T01:40:58;7.50;99.90
5392;DHT22;2719;53.624;9.786;2024-01-30T01:43:25;7.50;99.90
5392;DHT22;2719;53.624;9.786;2024-01-30T01:45:51;7.60;99.90
5392;DHT22;2719;53.624;9.786;2024-01-30T01:48:18;7.60;99.90
5392;DHT22;2719;53.624;9.786;2024-01-30T01:50:45;7.60;99.90
5392;DHT22;2719;53.624;9.786;2024-01-30T01:53:13;7.60;99.90
5392;DHT22;2719;53.624;9.786;2024-01-30T01:55:42;7.60;99.90
5392;DHT22;2719;53.624;9.786;2024-01-30T01:58:09;7.70;99.90
5392;DHT22;2719;53.624;9.786;2024-01-30T02:00:38;7.70;99.90
5392;DHT22;2719;53.624;9.786;2024-01-30T02:03:06;7.70;99.90
5392;DHT22;2719;53.624;9.786;2024-01-30T02:05:33;7.70;99.90
5392;DHT22;2719;53.624;9.786;2024-01-30T02:07:59;7.70;99.90
5392;DHT22;2719;53.624;9.786;2024-01-30T02:10:27;7.70;99.90
5392;DHT22;2719;53.624;9.786;2024-01-30T02:12:54;7.70;99.90
5392;DHT22;2719;53.624;9.786;2024-01-30T02:15:20;7.70;99.90
5392;DHT22;2719;53.624;9.786;2024-01-30T02:17:47;7.70;99.90
5392;DHT22;2719;53.624;9.786;2024-01-30T02:20:14;7.80;99.90
5392;DHT22;2719;53.624;9.786;2024-01-30T02:22:43;7.80;99.90
5392;DHT22;2719;53.624;9.786;2024-01-30T02:25:09;7.80;99.90
5392;DHT22;2719;53.624;9.786;2024-01-30T02:27:36;7.90;99.90
5392;DHT22;2719;53.624;9.786;2024-01-30T02:30:03;7.80;99.90
5392;DHT22;2719;53.624;9.786;2024-01-30T02:32:30;7.80;99.90
5392;DHT22;2719;53.624;9.786;2024-01-30T02:34:57;7.90;99.90
5392;DHT22;2719;53.624;9.786;2024-01-30T02:37:24;7.90;99.90
5392;DHT22;2719;53.624;9.786;2024-01-30T02:39:52;7.90;99.90
5392;DHT22;2719;53.624;9.786;2024-01-30T02:42:18;7.90;99.90
5392;DHT22;2719;53.624;9.786;2024-01-30T02:44:45;7.90;99.90
5392;DHT22;2719;53.624;9.786;2024-01-30T02:47:11;7.80;99.90
5392;DHT22;2719;53.624;9.786;2024-01-30T02:49:38;7.80;99.90
5392;DHT22;2719;53.624;9.786;2024-01-30T02:52:05;7.80;99.90
5392;DHT22;2719;53.624;9.786;2024-01-30T02:54:32;7.80;99.90
5392;DHT22;2719;53.624;9.786;2024-01-30T02:56:59;7.80;99.90
5392;DHT22;2719;53.624;9.786;2024-01-30T02:59:26;7.80;99.90
5392;DHT22;2719;53.624;9.786;2024-01-30T03:01:53;7.80;99.90
5392;DHT22;2719;53.624;9.786;2024-01-30T03:04:19;7.70;99.90
5392;DHT22;2719;53.624;9.786;2024-01-30T03:06:46;7.70;99.90
5392;DHT22;2719;53.624;9.786;2024-01-30T03:09:13;7.70;99.90
5392;DHT22;2719;53.624;9.786;2024-01-30T03:11:40;7.70;99.90
5392;DHT22;2719;53.624;9.786;2024-01-30T03:14:07;7.70;99.90
5392;DHT22;2719;53.624;9.786;2024-01-30T03:16:36;7.60;99.90
5392;DHT22;2719;53.624;9.786;2024-01-30T03:19:03;7.60;99.90
5392;DHT22;2719;53.624;9.786;2024-01-30T03:21:29;7.60;99.90
5392;DHT22;2719;53.624;9.786;2024-01-30T03:23:56;7.60;99.90
5392;DHT22;2719;53.624;9.786;2024-01-30T03:26:22;7.50;99.90
5392;DHT22;2719;53.624;9.786;2024-01-30T03:28:49;7.60;99.90
5392;DHT22;2719;53.624;9.786;2024-01-30T03:31:17;7.50;99.90
5392;DHT22;2719;53.624;9.786;2024-01-30T03:33:44;7.50;99.90
5392;DHT22;2719;53.624;9.786;2024-01-30T03:36:11;7.40;99.90
5392;DHT22;2719;53.624;9.786;2024-01-30T03:38:37;7.30;99.90
5392;DHT22;2719;53.624;9.786;2024-01-30T03:41:07;7.30;99.90
5392;DHT22;2719;53.624;9.786;2024-01-30T03:43:34;7.40;99.90
5392;DHT22;2719;53.624;9.786;2024-01-30T03:46:01;7.50;99.90
5392;DHT22;2719;53.624;9.786;2024-01-30T03:48:29;7.40;99.90
5392;DHT22;2719;53.624;9.786;2024-01-30T03:50:56;7.50;99.90
5392;DHT22;2719;53.624;9.786;2024-01-30T03:53:22;7.50;99.90
5392;DHT22;2719;53.624;9.786;2024-01-30T03:55:49;7.50;99.90
5392;DHT22;2719;53.624;9.786;2024-01-30T03:58:16;7.50;99.90
5392;DHT22;2719;53.624;9.786;2024-01-30T04:00:42;7.40;99.90
5392;DHT22;2719;53.624;9.786;2024-01-30T04:03:10;7.40;99.90
5392;DHT22;2719;53.624;9.786;2024-01-30T04:05:37;7.40;99.90
5392;DHT22;2719;53.624;9.786;2024-01-30T04:08:05;7.40;99.90
5392;DHT22;2719;53.624;9.786;2024-01-30T04:10:31;7.40;99.90
5392;DHT22;2719;53.624;9.786;2024-01-30T04:12:58;7.40;99.90
5392;DHT22;2719;53.624;9.786;2024-01-30T04:15:25;7.40;99.90
5392;DHT22;2719;53.624;9.786;2024-01-30T04:17:51;7.30;99.90
5392;DHT22;2719;53.624;9.786;2024-01-30T04:20:18;7.40;99.90
5392;DHT22;2719;53.624;9.786;2024-01-30T04:22:46;7.40;99.90
5392;DHT22;2719;53.624;9.786;2024-01-30T04:25:13;7.40;99.90
5392;DHT22;2719;53.624;9.786;2024-01-30T04:27:40;7.40;99.90
5392;DHT22;2719;53.624;9.786;2024-01-30T04:30:07;7.30;99.90
5392;DHT22;2719;53.624;9.786;2024-01-30T04:32:35;7.30;99.90
5392;DHT22;2719;53.624;9.786;2024-01-30T04:35:02;7.40;99.90
5392;DHT22;2719;53.624;9.786;2024-01-30T04:37:29;7.40;99.90
5392;DHT22;2719;53.624;9.786;2024-01-30T04:39:56;7.40;99.90
5392;DHT22;2719;53.624;9.786;2024-01-30T04:42:23;7.40;99.90
5392;DHT22;2719;53.624;9.786;2024-01-30T04:44:50;7.40;99.90
5392;DHT22;2719;53.624;9.786;2024-01-30T04:47:17;7.40;99.90
5392;DHT22;2719;53.624;9.786;2024-01-30T04:49:43;7.40;99.90
5392;DHT22;2719;53.624;9.786;2024-01-30T04:52:10;7.30;99.90
5392;DHT22;2719;53.624;9.786;2024-01-30T04:54:36;7.30;99.90
5392;DHT22;2719;53.624;9.786;2024-01-30T04:57:05;7.20;99.90
5392;DHT22;2719;53.624;9.786;2024-01-30T04:59:35;7.20;99.90
5392;DHT22;2719;53.624;9.786;2024-01-30T05:02:01;7.20;99.90
5392;DHT22;2719;53.624;9.786;2024-01-30T05:04:28;7.10;99.90
5392;DHT22;2719;53.624;9.786;2024-01-30T05:06:54;7.10;99.90
5392;DHT22;2719;53.624;9.786;2024-01-30T05:09:21;7.20;99.90
5392;DHT22;2719;53.624;9.786;2024-01-30T05:11:48;7.20;99.90
5392;DHT22;2719;53.624;9.786;2024-01-30T05:14:15;7.20;99.90
5392;DHT22;2719;53.624;9.786;2024-01-30T05:16:43;7.20;99.90
5392;DHT22;2719;53.624;9.786;2024-01-30T05:19:12;7.20;99.90
5392;DHT22;2719;53.624;9.786;2024-01-30T05:21:39;7.10;99.90
5392;DHT22;2719;53.624;9.786;2024-01-30T05:24:06;7.20;99.90
5392;DHT22;2719;53.624;9.786;2024-01-30T05:26:32;7.20;99.90
5392;DHT22;2719;53.624;9.786;2024-01-30T05:28:59;7.10;99.90
5392;DHT22;2719;53.624;9.786;2024-01-30T05:31:27;7.20;99.90
5392;DHT22;2719;53.624;9.786;2024-01-30T05:33:54;7.10;99.90
5392;DHT22;2719;53.624;9.786;2024-01-30T05:36:21;7.10;99.90
5392;DHT22;2719;53.624;9.786;2024-01-30T05:38:47;7.10;99.90
5392;DHT22;2719;53.624;9.786;2024-01-30T05:41:14;7.10;99.90
5392;DHT22;2719;53.624;9.786;2024-01-30T05:43:41;7.10;99.90
5392;DHT22;2719;53.624;9.786;2024-01-30T05:46:07;7.10;99.90
5392;DHT22;2719;53.624;9.786;2024-01-30T05:48:36;7.00;99.90
5392;DHT22;2719;53.624;9.786;2024-01-30T05:51:03;7.00;99.90
5392;DHT22;2719;53.624;9.786;2024-01-30T05:53:30;7.10;99.90
5392;DHT22;2719;53.624;9.786;2024-01-30T05:55:56;7.00;99.90
5392;DHT22;2719;53.624;9.786;2024-01-30T05:58:23;7.10;99.90
5392;DHT22;2719;53.624;9.786;2024-01-30T06:00:49;7.10;99.90
5392;DHT22;2719;53.624;9.786;2024-01-30T06:03:16;7.10;99.90
5392;DHT22;2719;53.624;9.786;2024-01-30T06:05:44;7.00;99.90
5392;DHT22;2719;53.624;9.786;2024-01-30T06:08:11;7.00;99.90
5392;DHT22;2719;53.624;9.786;2024-01-30T06:10:37;7.00;99.90
5392;DHT22;2719;53.624;9.786;2024-01-30T06:13:04;7.10;99.90
5392;DHT22;2719;53.624;9.786;2024-01-30T06:15:31;7.10;99.90
5392;DHT22;2719;53.624;9.786;2024-01-30T06:17:58;7.10;99.90
5392;DHT22;2719;53.624;9.786;2024-01-30T06:20:24;7.10;99.90
5392;DHT22;2719;53.624;9.786;2024-01-30T06:22:52;7.10;99.90
5392;DHT22;2719;53.624;9.786;2024-01-30T06:25:19;7.00;99.90
5392;DHT22;2719;53.624;9.786;2024-01-30T06:27:45;7.00;99.90
5392;DHT22;2719;53.624;9.786;2024-01-30T06:30:13;7.10;99.90
5392;DHT22;2719;53.624;9.786;2024-01-30T06:32:39;7.10;99.90
5392;DHT22;2719;53.624;9.786;2024-01-30T06:35:06;7.10;99.90
5392;DHT22;2719;53.624;9.786;2024-01-30T06:37:33;7.10;99.90
5392;DHT22;2719;53.624;9.786;2024-01-30T06:40:01;7.10;99.90
5392;DHT22;2719;53.624;9.786;2024-01-30T06:42:30;7.20;99.90
5392;DHT22;2719;53.624;9.786;2024-01-30T06:44:56;7.10;99.90
5392;DHT22;2719;53.624;9.786;2024-01-30T06:47:23;7.10;99.90
5392;DHT22;2719;53.624;9.786;2024-01-30T06:49:50;7.10;99.90
5392;DHT22;2719;53.624;9.786;2024-01-30T06:52:16;7.20;99.90
5392;DHT22;2719;53.624;9.786;2024-01-30T06:54:43;7.20;99.90
5392;DHT22;2719;53.624;9.786;2024-01-30T06:57:11;7.20;99.90
5392;DHT22;2719;53.624;9.786;2024-01-30T06:59:39;7.20;99.90
5392;DHT22;2719;53.624;9.786;2024-01-30T07:02:08;7.20;99.90
5392;DHT22;2719;53.624;9.786;2024-01-30T07:04:35;7.20;99.90
5392;DHT22;2719;53.624;9.786;2024-01-30T07:07:03;7.20;99.90
5392;DHT22;2719;53.624;9.786;2024-01-30T07:09:31;7.10;99.90
5392;DHT22;2719;53.624;9.786;2024-01-30T07:11:57;7.10;99.90
5392;DHT22;2719;53.624;9.786;2024-01-30T07:14:25;7.00;99.90
5392;DHT22;2719;53.624;9.786;2024-01-30T07:16:52;7.00;99.90
5392;DHT22;2719;53.624;9.786;2024-01-30T07:19:19;7.00;99.90
5392;DHT22;2719;53.624;9.786;2024-01-30T07:21:45;7.10;99.90
5392;DHT22;2719;53.624;9.786;2024-01-30T07:24:12;7.20;99.90
5392;DHT22;2719;53.624;9.786;2024-01-30T07:26:38;7.20;99.90
5392;DHT22;2719;53.624;9.786;2024-01-30T07:29:05;7.20;99.90
5392;DHT22;2719;53.624;9.786;2024-01-30T07:31:33;7.20;99.90
5392;DHT22;2719;53.624;9.786;2024-01-30T07:34:00;7.20;99.90
5392;DHT22;2719;53.624;9.786;2024-01-30T07:36:26;7.20;99.90
5392;DHT22;2719;53.624;9.786;2024-01-30T07:38:53;7.20;99.90
5392;DHT22;2719;53.624;9.786;2024-01-30T07:41:20;7.20;99.90
5392;DHT22;2719;53.624;9.786;2024-01-30T07:43:47;7.20;99.90
5392;DHT22;2719;53.624;9.786;2024-01-30T07:46:13;7.20;99.90
5392;DHT22;2719;53.624;9.786;2024-01-30T07:48:41;7.30;99.90
5392;DHT22;2719;53.624;9.786;2024-01-30T07:51:08;7.30;99.90
5392;DHT22;2719;53.624;9.786;2024-01-30T07:53:34;7.20;99.90
5392;DHT22;2719;53.624;9.786;2024-01-30T07:56:01;7.20;99.90
5392;DHT22;2719;53.624;9.786;2024-01-30T07:58:28;7.30;99.90
5392;DHT22;2719;53.624;9.786;2024-01-30T08:00:55;7.30;99.90
5392;DHT22;2719;53.624;9.786;2024-01-30T08:03:23;7.30;99.90
5392;DHT22;2719;53.624;9.786;2024-01-30T08:05:51;7.20;99.90
5392;DHT22;2719;53.624;9.786;2024-01-30T08:08:18;7.30;99.90
5392;DHT22;2719;53.624;9.786;2024-01-30T08:10:44;7.30;99.90
5392;DHT22;2719;53.624;9.786;2024-01-30T08:13:11;7.30;99.90
5392;DHT22;2719;53.624;9.786;2024-01-30T08:15:38;7.40;99.90
5392;DHT22;2719;53.624;9.786;2024-01-30T08:18:05;7.40;99.90
5392;DHT22;2719;53.624;9.786;2024-01-30T08:20:32;7.40;99.90
5392;DHT22;2719;53.624;9.786;2024-01-30T08:23:00;7.40;99.90
5392;DHT22;2719;53.624;9.786;2024-01-30T08:25:27;7.40;99.90
5392;DHT22;2719;53.624;9.786;2024-01-30T08:27:53;7.40;99.90
5392;DHT22;2719;53.624;9.786;2024-01-30T08:30:20;7.40;99.90
5392;DHT22;2719;53.624;9.786;2024-01-30T08:32:46;7.50;99.90
5392;DHT22;2719;53.624;9.786;2024-01-30T08:35:13;7.50;99.90
5392;DHT22;2719;53.624;9.786;2024-01-30T08:37:41;7.80;99.90
5392;DHT22;2719;53.624;9.786;2024-01-30T08:40:10;7.70;99.90
5392;DHT22;2719;53.624;9.786;2024-01-30T08:42:36;7.70;99.90
5392;DHT22;2719;53.624;9.786;2024-01-30T08:45:05;7.70;99.90
5392;DHT22;2719;53.624;9.786;2024-01-30T08:47:32;7.90;99.90
5392;DHT22;2719;53.624;9.786;2024-01-30T08:49:59;7.90;99.90
5392;DHT22;2719;53.624;9.786;2024-01-30T08:52:26;7.80;99.90
5392;DHT22;2719;53.624;9.786;2024-01-30T08:54:52;7.80;99.90
5392;DHT22;2719;53.624;9.786;2024-01-30T08:57:21;7.80;99.90
5392;DHT22;2719;53.624;9.786;2024-01-30T08:59:47;7.80;99.90
5392;DHT22;2719;53.624;9.786;2024-01-30T09:02:14;7.80;99.90
5392;DHT22;2719;53.624;9.786;2024-01-30T09:04:41;7.80;99.90
5392;DHT22;2719;53.624;9.786;2024-01-30T09:07:09;7.80;99.90
5392;DHT22;2719;53.624;9.786;2024-01-30T09:09:37;7.90;99.90
5392;DHT22;2719;53.624;9.786;2024-01-30T09:12:05;7.90;99.90
5392;DHT22;2719;53.624;9.786;2024-01-30T09:14:33;8.00;99.90
5392;DHT22;2719;53.624;9.786;2024-01-30T09:17:00;8.00;99.90
5392;DHT22;2719;53.624;9.786;2024-01-30T09:19:28;8.10;99.90
5392;DHT22;2719;53.624;9.786;2024-01-30T09:21:55;8.10;99.90
5392;DHT22;2719;53.624;9.786;2024-01-30T09:24:22;8.10;99.90
5392;DHT22;2719;53.624;9.786;2024-01-30T09:26:49;8.10;99.90
5392;DHT22;2719;53.624;9.786;2024-01-30T09:29:15;8.10;99.90
5392;DHT22;2719;53.624;9.786;2024-01-30T09:31:44;8.10;99.90
5392;DHT22;2719;53.624;9.786;2024-01-30T09:34:11;8.20;99.90
5392;DHT22;2719;53.624;9.786;2024-01-30T09:36:38;8.20;99.90
5392;DHT22;2719;53.624;9.786;2024-01-30T09:39:05;8.20;99.90
5392;DHT22;2719;53.624;9.786;2024-01-30T09:41:33;8.30;99.90
5392;DHT22;2719;53.624;9.786;2024-01-30T09:44:06;8.30;99.90
5392;DHT22;2719;53.624;9.786;2024-01-30T09:46:35;8.20;99.90
5392;DHT22;2719;53.624;9.786;2024-01-30T09:49:03;8.30;99.90
5392;DHT22;2719;53.624;9.786;2024-01-30T09:51:30;8.30;99.90
5392;DHT22;2719;53.624;9.786;2024-01-30T09:53:57;8.40;99.90
5392;DHT22;2719;53.624;9.786;2024-01-30T09:56:24;8.40;99.90
5392;DHT22;2719;53.624;9.786;2024-01-30T09:58:51;8.40;99.90
5392;DHT22;2719;53.624;9.786;2024-01-30T10:01:17;8.40;99.90
5392;DHT22;2719;53.624;9.786;2024-01-30T10:03:44;8.40;99.90
5392;DHT22;2719;53.624;9.786;2024-01-30T10:06:13;8.50;99.90
5392;DHT22;2719;53.624;9.786;2024-01-30T10:08:42;8.50;99.90
5392;DHT22;2719;53.624;9.786;2024-01-30T10:11:09;8.60;99.90
5392;DHT22;2719;53.624;9.786;2024-01-30T10:13:35;8.60;99.90
5392;DHT22;2719;53.624;9.786;2024-01-30T10:16:02;8.60;99.90
5392;DHT22;2719;53.624;9.786;2024-01-30T10:18:31;8.60;99.90
5392;DHT22;2719;53.624;9.786;2024-01-30T10:20:58;8.60;99.90
5392;DHT22;2719;53.624;9.786;2024-01-30T10:23:26;8.70;99.90
5392;DHT22;2719;53.624;9.786;2024-01-30T10:25:53;8.70;99.90
5392;DHT22;2719;53.624;9.786;2024-01-30T10:28:20;8.80;99.90
5392;DHT22;2719;53.624;9.786;2024-01-30T10:30:57;8.80;99.90
5392;DHT22;2719;53.624;9.786;2024-01-30T10:33:24;8.90;99.90
5392;DHT22;2719;53.624;9.786;2024-01-30T10:35:51;8.90;99.90
5392;DHT22;2719;53.624;9.786;2024-01-30T10:38:19;9.00;99.90
5392;DHT22;2719;53.624;9.786;2024-01-30T10:40:48;9.00;99.90
5392;DHT22;2719;53.624;9.786;2024-01-30T10:43:20;9.00;99.90
5392;DHT22;2719;53.624;9.786;2024-01-30T10:45:49;9.10;99.90
5392;DHT22;2719;53.624;9.786;2024-01-30T10:48:18;9.10;99.90
5392;DHT22;2719;53.624;9.786;2024-01-30T10:50:50;9.10;99.90
5392;DHT22;2719;53.624;9.786;2024-01-30T10:53:19;9.20;99.90
5392;DHT22;2719;53.624;9.786;2024-01-30T10:55:48;9.20;99.90
5392;DHT22;2719;53.624;9.786;2024-01-30T10:58:17;9.10;99.90
5392;DHT22;2719;53.624;9.786;2024-01-30T11:00:44;9.20;99.90
5392;DHT22;2719;53.624;9.786;2024-01-30T11:03:12;9.10;99.90
5392;DHT22;2719;53.624;9.786;2024-01-30T11:05:40;9.20;99.90
5392;DHT22;2719;53.624;9.786;2024-01-30T11:08:11;9.20;99.90
5392;DHT22;2719;53.624;9.786;2024-01-30T11:10:44;9.20;99.90
5392;DHT22;2719;53.624;9.786;2024-01-30T11:13:15;9.30;99.90
5392;DHT22;2719;53.624;9.786;2024-01-30T11:15:41;9.30;99.90
5392;DHT22;2719;53.624;9.786;2024-01-30T11:18:08;9.40;99.90
5392;DHT22;2719;53.624;9.786;2024-01-30T11:20:35;9.40;99.90
5392;DHT22;2719;53.624;9.786;2024-01-30T11:23:02;9.40;99.90
5392;DHT22;2719;53.624;9.786;2024-01-30T11:25:32;9.40;99.90
5392;DHT22;2719;53.624;9.786;2024-01-30T11:27:59;9.40;99.90
5392;DHT22;2719;53.624;9.786;2024-01-30T11:30:28;9.40;99.90
5392;DHT22;2719;53.624;9.786;2024-01-30T11:33:00;9.40;99.90
5392;DHT22;2719;53.624;9.786;2024-01-30T11:35:26;9.40;99.90
5392;DHT22;2719;53.624;9.786;2024-01-30T11:37:54;9.40;99.90
5392;DHT22;2719;53.624;9.786;2024-01-30T11:40:21;9.40;99.90
5392;DHT22;2719;53.624;9.786;2024-01-30T11:42:48;9.40;99.90
5392;DHT22;2719;53.624;9.786;2024-01-30T11:45:17;9.40;99.90
5392;DHT22;2719;53.624;9.786;2024-01-30T11:47:45;9.40;99.90
5392;DHT22;2719;53.624;9.786;2024-01-30T11:50:11;9.40;99.90
5392;DHT22;2719;53.624;9.786;2024-01-30T11:52:38;9.40;99.90
5392;DHT22;2719;53.624;9.786;2024-01-30T11:55:05;9.40;99.90
5392;DHT22;2719;53.624;9.786;2024-01-30T11:57:33;9.50;99.90
5392;DHT22;2719;53.624;9.786;2024-01-30T12:00:00;9.40;99.90
5392;DHT22;2719;53.624;9.786;2024-01-30T12:02:27;9.40;99.90
5392;DHT22;2719;53.624;9.786;2024-01-30T12:04:55;9.40;99.90
5392;DHT22;2719;53.624;9.786;2024-01-30T12:07:21;9.40;99.90
5392;DHT22;2719;53.624;9.786;2024-01-30T12:09:52;9.40;99.90
5392;DHT22;2719;53.624;9.786;2024-01-30T12:12:21;9.40;99.90
5392;DHT22;2719;53.624;9.786;2024-01-30T12:14:49;9.40;99.90
5392;DHT22;2719;53.624;9.786;2024-01-30T12:17:23;9.40;99.90
5392;DHT22;2719;53.624;9.786;2024-01-30T12:19:50;9.40;99.90
5392;DHT22;2719;53.624;9.786;2024-01-30T12:22:18;9.40;99.90
5392;DHT22;2719;53.624;9.786;2024-01-30T12:24:45;9.40;99.90
5392;DHT22;2719;53.624;9.786;2024-01-30T12:27:15;9.40;99.90
5392;DHT22;2719;53.624;9.786;2024-01-30T12:29:42;9.40;99.90
5392;DHT22;2719;53.624;9.786;2024-01-30T12:32:15;9.50;99.90
5392;DHT22;2719;53.624;9.786;2024-01-30T12:34:42;9.50;99.90
5392;DHT22;2719;53.624;9.786;2024-01-30T12:37:08;9.50;99.90
5392;DHT22;2719;53.624;9.786;2024-01-30T12:39:38;9.50;99.90
5392;DHT22;2719;53.624;9.786;2024-01-30T12:42:05;9.50;99.90
5392;DHT22;2719;53.624;9.786;2024-01-30T12:44:31;9.50;99.90
5392;DHT22;2719;53.624;9.786;2024-01-30T12:46:58;9.50;99.90
5392;DHT22;2719;53.624;9.786;2024-01-30T12:49:25;9.40;99.90
5392;DHT22;2719;53.624;9.786;2024-01-30T12:51:51;9.50;99.90
5392;DHT22;2719;53.624;9.786;2024-01-30T12:54:18;9.50;99.90
5392;DHT22;2719;53.624;9.786;2024-01-30T12:56:46;9.50;99.90
5392;DHT22;2719;53.624;9.786;2024-01-30T12:59:12;9.50;99.90
5392;DHT22;2719;53.624;9.786;2024-01-30T13:01:39;9.50;99.90
5392;DHT22;2719;53.624;9.786;2024-01-30T13:04:06;9.50;99.90
5392;DHT22;2719;53.624;9.786;2024-01-30T13:06:32;9.60;99.90
5392;DHT22;2719;53.624;9.786;2024-01-30T13:08:59;9.60;99.90
5392;DHT22;2719;53.624;9.786;2024-01-30T13:11:26;9.60;99.90
5392;DHT22;2719;53.624;9.786;2024-01-30T13:13:54;9.60;99.90
5392;DHT22;2719;53.624;9.786;2024-01-30T13:16:20;9.60;99.90
5392;DHT22;2719;53.624;9.786;2024-01-30T13:18:47;9.70;99.90
5392;DHT22;2719;53.624;9.786;2024-01-30T13:21:13;9.70;99.90
5392;DHT22;2719;53.624;9.786;2024-01-30T13:23:40;9.70;99.90
5392;DHT22;2719;53.624;9.786;2024-01-30T13:26:07;9.70;99.90
5392;DHT22;2719;53.624;9.786;2024-01-30T13:28:34;9.70;99.90
5392;DHT22;2719;53.624;9.786;2024-01-30T13:31:02;9.70;99.90
5392;DHT22;2719;53.624;9.786;2024-01-30T13:33:28;9.70;99.90
5392;DHT22;2719;53.624;9.786;2024-01-30T13:35:55;9.70;99.90
5392;DHT22;2719;53.624;9.786;2024-01-30T13:38:21;9.70;99.90
5392;DHT22;2719;53.624;9.786;2024-01-30T13:40:48;9.80;99.90
5392;DHT22;2719;53.624;9.786;2024-01-30T13:43:15;9.80;99.90
5392;DHT22;2719;53.624;9.786;2024-01-30T13:45:41;9.80;99.90
5392;DHT22;2719;53.624;9.786;2024-01-30T13:48:09;9.80;99.90
5392;DHT22;2719;53.624;9.786;2024-01-30T13:50:36;9.80;99.90
5392;DHT22;2719;53.624;9.786;2024-01-30T13:53:03;9.80;99.90
5392;DHT22;2719;53.624;9.786;2024-01-30T13:55:30;9.80;99.90
5392;DHT22;2719;53.624;9.786;2024-01-30T13:57:56;9.80;99.90
5392;DHT22;2719;53.624;9.786;2024-01-30T14:00:23;9.80;99.90
5392;DHT22;2719;53.624;9.786;2024-01-30T14:02:51;9.90;99.90
5392;DHT22;2719;53.624;9.786;2024-01-30T14:05:21;9.90;99.90
5392;DHT22;2719;53.624;9.786;2024-01-30T14:07:48;9.90;99.90
5392;DHT22;2719;53.624;9.786;2024-01-30T14:10:15;9.90;99.90
5392;DHT22;2719;53.624;9.786;2024-01-30T14:12:42;9.90;99.90
5392;DHT22;2719;53.624;9.786;2024-01-30T14:15:10;9.90;99.90
5392;DHT22;2719;53.624;9.786;2024-01-30T14:17:38;9.90;99.90
5392;DHT22;2719;53.624;9.786;2024-01-30T14:20:05;9.90;99.90
5392;DHT22;2719;53.624;9.786;2024-01-30T14:22:34;9.90;99.90
5392;DHT22;2719;53.624;9.786;2024-01-30T14:25:01;9.90;99.90
5392;DHT22;2719;53.624;9.786;2024-01-30T14:27:29;9.90;99.90
5392;DHT22;2719;53.624;9.786;2024-01-30T14:29:56;9.90;99.90
5392;DHT22;2719;53.624;9.786;2024-01-30T14:32:22;9.90;99.90
5392;DHT22;2719;53.624;9.786;2024-01-30T14:34:49;10.00;99.90
5392;DHT22;2719;53.624;9.786;2024-01-30T14:37:16;10.00;99.90
5392;DHT22;2719;53.624;9.786;2024-01-30T14:39:44;10.00;99.90
5392;DHT22;2719;53.624;9.786;2024-01-30T14:42:11;9.90;99.90
5392;DHT22;2719;53.624;9.786;2024-01-30T14:44:37;10.00;99.90
5392;DHT22;2719;53.624;9.786;2024-01-30T14:47:05;10.00;99.90
5392;DHT22;2719;53.624;9.786;2024-01-30T14:49:32;10.00;99.90
5392;DHT22;2719;53.624;9.786;2024-01-30T14:51:58;10.00;99.90
5392;DHT22;2719;53.624;9.786;2024-01-30T14:54:26;10.00;99.90
5392;DHT22;2719;53.624;9.786;2024-01-30T14:56:54;10.00;99.90
5392;DHT22;2719;53.624;9.786;2024-01-30T14:59:21;10.00;99.90
5392;DHT22;2719;53.624;9.786;2024-01-30T15:01:47;10.00;99.90
5392;DHT22;2719;53.624;9.786;2024-01-30T15:04:14;10.00;99.90
5392;DHT22;2719;53.624;9.786;2024-01-30T15:06:41;10.10;99.90
5392;DHT22;2719;53.624;9.786;2024-01-30T15:09:10;10.00;99.90
5392;DHT22;2719;53.624;9.786;2024-01-30T15:11:40;10.10;99.90
5392;DHT22;2719;53.624;9.786;2024-01-30T15:14:08;10.10;99.90
5392;DHT22;2719;53.624;9.786;2024-01-30T15:16:35;10.10;99.90
5392;DHT22;2719;53.624;9.786;2024-01-30T15:19:02;10.10;99.90
5392;DHT22;2719;53.624;9.786;2024-01-30T15:21:30;10.10;99.90
5392;DHT22;2719;53.624;9.786;2024-01-30T15:23:56;10.10;99.90
5392;DHT22;2719;53.624;9.786;2024-01-30T15:26:23;10.10;99.90
5392;DHT22;2719;53.624;9.786;2024-01-30T15:28:51;10.10;99.90
5392;DHT22;2719;53.624;9.786;2024-01-30T15:31:19;10.10;99.90
5392;DHT22;2719;53.624;9.786;2024-01-30T15:33:46;10.10;99.90
5392;DHT22;2719;53.624;9.786;2024-01-30T15:36:13;10.10;99.90
5392;DHT22;2719;53.624;9.786;2024-01-30T15:38:40;10.10;99.90
5392;DHT22;2719;53.624;9.786;2024-01-30T15:41:06;10.10;99.90
5392;DHT22;2719;53.624;9.786;2024-01-30T15:43:33;10.10;99.90
5392;DHT22;2719;53.624;9.786;2024-01-30T15:46:00;10.10;99.90
5392;DHT22;2719;53.624;9.786;2024-01-30T15:48:28;10.10;99.90
5392;DHT22;2719;53.624;9.786;2024-01-30T15:50:54;10.10;99.90
5392;DHT22;2719;53.624;9.786;2024-01-30T15:53:21;10.10;99.90
5392;DHT22;2719;53.624;9.786;2024-01-30T15:55:48;10.10;99.90
5392;DHT22;2719;53.624;9.786;2024-01-30T15:58:15;10.10;99.90
5392;DHT22;2719;53.624;9.786;2024-01-30T16:00:41;10.20;99.90
5392;DHT22;2719;53.624;9.786;2024-01-30T16:03:08;10.10;99.90
5392;DHT22;2719;53.624;9.786;2024-01-30T16:05:36;10.10;99.90
5392;DHT22;2719;53.624;9.786;2024-01-30T16:08:03;10.10;99.90
5392;DHT22;2719;53.624;9.786;2024-01-30T16:10:30;10.10;99.90
5392;DHT22;2719;53.624;9.786;2024-01-30T16:12:56;10.20;99.90
5392;DHT22;2719;53.624;9.786;2024-01-30T16:15:23;10.20;99.90